Flight Track Log - Related Links

Times and Time Zones

All times are in EDT time to prevent confusion due to time zone crossing. See the N682RW flight status page for this flight to view local times or setup timezone preferences in your user account.

Time Position Orientation Groundspeed Altitude Reporting Facility
EST Latitude Longitude Course Direction KTS MPH feet Rate Location/Type
Sun 02:23:15 AM 53.3000 -112.9167 99° East 370 426 16,500  Level Winnipeg Center
Sun 02:24:15 AM 53.2833 -112.7333 99° East 380 437 19,300 2,300 Climbing Winnipeg Center
Sun 02:25:15 AM 53.2667 -112.5667 99° East 390 449 21,100 1,700 Climbing Winnipeg Center
Sun 02:26:15 AM 53.2500 -112.3833 99° East 410 472 22,700 1,700 Climbing Winnipeg Center
Sun 02:27:15 AM 53.2167 -112.2000 107° East 420 483 24,500 1,700 Climbing Winnipeg Center
Sun 02:28:15 AM 53.1833 -111.9833 104° East 430 495 26,100 1,450 Climbing Winnipeg Center
Sun 02:29:15 AM 53.1500 -111.8000 107° East 430 495 27,400 1,500 Climbing Winnipeg Center
Sun 02:30:15 AM 53.1167 -111.6333 108° East 440 506 29,100 1,800 Climbing Winnipeg Center
Sun 02:31:15 AM 53.0667 -111.4167 111° Southeast 430 495 31,000 1,350 Climbing Winnipeg Center
Sun 02:32:15 AM 53.0333 -111.2333 107° East 440 506 31,800 950 Climbing Winnipeg Center
Sun 02:33:15 AM 53.0000 -111.0167 104° East 450 518 32,900 950 Climbing Winnipeg Center
Sun 02:34:15 AM 52.9500 -110.8333 114° Southeast 450 518 33,700 750 Climbing Winnipeg Center
Sun 02:35:15 AM 52.9167 -110.6333 105° East 450 518 34,400 600 Climbing Winnipeg Center
Sun 02:36:15 AM 52.8833 -110.4167 104° East 460 529 34,900 300 Climbing Winnipeg Center
Sun 02:37:15 AM 52.8500 -110.2500 108° East 460 529 35,000 50 Climbing Winnipeg Center
Sun 02:38:15 AM 52.8167 -110.0333 104° East 470 541 35,000  Level Winnipeg Center
Sun 02:39:15 AM 52.7667 -109.8000 109° East 470 541 35,000  Level Winnipeg Center
Sun 02:40:15 AM 52.7333 -109.6167 107° East 460 529 35,000  Level Winnipeg Center
Sun 02:41:15 AM 52.7167 -109.4167 98° East 460 529 35,000  Level Winnipeg Center
Sun 02:42:15 AM 52.6667 -109.2000 111° Southeast 460 529 35,000  Level Winnipeg Center
Sun 02:43:15 AM 52.6333 -109.0333 108° East 460 529 35,000  Level Winnipeg Center
Sun 02:44:15 AM 52.5833 -108.8000 109° East 460 529 35,000  Level Winnipeg Center
Sun 02:45:15 AM 52.5333 -108.6167 114° Southeast 460 529 35,000  Level Winnipeg Center
Sun 02:46:15 AM 52.5000 -108.4167 105° East 460 529 35,000  Level Winnipeg Center
Sun 02:47:15 AM 52.4667 -108.2000 104° East 460 529 35,000  Level Winnipeg Center
Sun 02:48:15 AM 52.4333 -108.0000 105° East 460 529 35,000  Level Winnipeg Center
Sun 02:49:15 AM 52.3833 -107.8000 112° Southeast 460 529 35,000  Level Winnipeg Center
Sun 02:50:15 AM 52.3500 -107.6000 105° East 470 541 35,000  Level Winnipeg Center
Sun 02:51:15 AM 52.3000 -107.4000 112° Southeast 460 529 35,000  Level Winnipeg Center
Sun 02:52:15 AM 52.2667 -107.2167 106° East 470 541 35,000  Level Winnipeg Center
Sun 02:53:15 AM 52.2167 -107.0167 112° Southeast 470 541 35,000  Level Winnipeg Center
Sun 02:54:15 AM 52.1833 -106.8167 105° East 470 541 35,000  Level Winnipeg Center
Sun 02:55:15 AM 52.1333 -106.6167 112° Southeast 460 529 35,000  Level Winnipeg Center
Sun 02:56:15 AM 52.1000 -106.4167 105° East 470 541 35,000  Level Winnipeg Center
Sun 02:57:15 AM 52.0667 -106.1833 103° East 470 541 35,000  Level Winnipeg Center
Sun 02:58:15 AM 52.0167 -106.0167 116° Southeast 470 541 35,000  Level Winnipeg Center
Sun 02:59:15 AM 51.9833 -105.7833 103° East 470 541 35,000  Level Winnipeg Center
Sun 03:00:15 AM 51.9333 -105.5833 112° Southeast 480 552 35,000  Level Winnipeg Center
Sun 03:01:15 AM 51.8833 -105.3833 112° Southeast 470 541 35,000  Level Winnipeg Center
Sun 03:02:15 AM 51.8500 -105.1833 105° East 480 552 35,000  Level Winnipeg Center
Sun 03:03:15 AM 51.8167 -104.9833 105° East 480 552 35,000  Level Winnipeg Center
Sun 03:04:15 AM 51.7667 -104.7667 110° East 480 552 35,000  Level Winnipeg Center
Sun 03:05:15 AM 51.7333 -104.5667 105° East 480 552 35,000  Level Winnipeg Center
Sun 03:06:15 AM 51.6667 -104.3667 118° Southeast 490 564 35,000  Level Winnipeg Center
Sun 03:07:15 AM 51.6333 -104.1500 104° East 490 564 35,000  Level Winnipeg Center
Sun 03:08:15 AM 51.5833 -103.9500 112° Southeast 490 564 35,000  Level Winnipeg Center
Sun 03:09:15 AM 51.5333 -103.7500 112° Southeast 490 564 35,000  Level Winnipeg Center
Sun 03:10:15 AM 51.4833 -103.5333 110° East 490 564 35,000  Level Winnipeg Center
Sun 03:11:15 AM 51.4500 -103.3333 105° East 500 575 35,000  Level Winnipeg Center
Sun 03:12:15 AM 51.3833 -103.1167 116° Southeast 500 575 35,000  Level Winnipeg Center
Sun 03:13:15 AM 51.3500 -102.9000 104° East 500 575 35,000  Level Winnipeg Center
Sun 03:14:15 AM 51.3000 -102.7000 112° Southeast 500 575 35,000  Level Winnipeg Center
Sun 03:15:15 AM 51.2500 -102.4833 110° East 500 575 35,000  Level Winnipeg Center
Sun 03:16:15 AM 51.2167 -102.2833 105° East 500 575 35,000  Level Winnipeg Center
Sun 03:17:15 AM 51.1667 -102.0667 110° East 510 587 35,000  Level Winnipeg Center
Sun 03:18:15 AM 51.1167 -101.8500 110° East 500 575 35,000  Level Winnipeg Center
Sun 03:19:15 AM 51.0667 -101.6500 112° Southeast 500 575 35,000  Level Winnipeg Center
Sun 03:20:15 AM 51.0333 -101.4333 104° East 510 587 35,000  Level Winnipeg Center
Sun 03:21:15 AM 50.9667 -101.2167 116° Southeast 510 587 35,000  Level Winnipeg Center
Sun 03:22:15 AM 50.9333 -101.0000 104° East 510 587 35,000  Level Winnipeg Center
Sun 03:23:15 AM 50.8833 -100.7833 110° East 510 587 35,000  Level Winnipeg Center
Sun 03:24:15 AM 50.8500 -100.5667 104° East 510 587 35,000  Level Winnipeg Center
Sun 03:25:15 AM 50.8000 -100.3833 113° Southeast 510 587 35,000  Level Winnipeg Center
Sun 03:26:15 AM 50.7333 -100.1333 113° Southeast 510 587 35,000  Level Winnipeg Center
Sun 03:27:15 AM 50.7000 -99.9500 106° East 510 587 35,000 -1,050 Level Winnipeg Center
Sun 03:28:15 AM 50.6500 -99.7333 110° East 510 587 32,900 -2,450 Descending Winnipeg Center
Sun 03:29:15 AM 50.6000 -99.5167 110° East 510 587 30,100 -2,350 Descending Winnipeg Center
Sun 03:30:15 AM 50.5333 -99.3333 120° Southeast 500 575 28,200 -2,150 Descending Winnipeg Center
Sun 03:31:15 AM 50.5000 -99.1167 104° East 480 552 25,800 -2,400 Descending Winnipeg Center
Sun 03:32:15 AM 50.4500 -98.9333 113° Southeast 460 529 23,400 -2,600 Descending Winnipeg Center
Sun 03:33:15 AM 50.4000 -98.7500 113° Southeast 450 518 20,600 -2,250 Descending Winnipeg Center
Sun 03:34:15 AM 50.3500 -98.5833 115° Southeast 430 495 18,900 -1,650 Descending Winnipeg Center
Sun 03:35:15 AM 50.3000 -98.4333 118° Southeast 410 472 17,300 -1,500 Descending Winnipeg Center
Sun 03:36:15 AM 50.2500 -98.2667 115° Southeast 380 437 15,900 -1,500 Descending Winnipeg Center
Sun 03:37:15 AM 50.2167 -98.1500 114° Southeast 350 403 14,300 -1,550 Descending Winnipeg Center
Sun 03:38:15 AM 50.1833 -98.0167 111° Southeast 320 368 12,800 -1,400 Descending Winnipeg Center
Sun 03:39:15 AM 50.1500 -97.9000 114° Southeast 290 334 11,500 -1,200 Descending Winnipeg Center
Sun 03:40:15 AM 50.1333 -97.8000 105° East 240 276 10,400 -1,150 Descending Winnipeg Center
Sun 03:41:15 AM 50.1000 -97.7167 122° Southeast 210 242 9,200 -1,200 Descending Winnipeg Center
Sun 03:42:15 AM 50.0833 -97.6500 111° Southeast 190 219 8,000 -1,250 Descending Winnipeg Center
Sun 03:43:15 AM 50.0667 -97.5667 107° East 180 207 6,700 -1,450 Descending Winnipeg Center
Sun 03:44:15 AM 50.0333 -97.5167 136° Southeast 160 184 5,100 -1,200 Descending Winnipeg Center
Sun 03:45:15 AM 50.0167 -97.4333 107° East 150 173 4,300 -650 Descending Winnipeg Center
Sun 03:46:15 AM 50.0000 -97.3833 117° Southeast 150 173 3,800 -750 Descending Winnipeg Center
Sun 03:47:15 AM 49.9667 -97.3500 147° Southeast 140 161 2,800 -900 Descending Winnipeg Center
Sun 03:48:15 AM 49.9500 -97.3000 117° Southeast 130 150 2,000 -650 Descending Winnipeg Center
Sun 03:49:15 AM 49.9167 -97.2833 162° South 120 138 1,500 -500 Descending Winnipeg Center

Login

Don't have an account? Register now (free) for customized features, flight alerts, and more!